Time;durP1;ratioP1;P1;durP2;ratioP2;P2;SDS_P1;SDS_P2;PMS_P1;PMS_P2;Temp;Humidity;BMP_temperature;BMP_pressure;BME280_temperature;BME280_humidity;BME280_pressure;Samples;Min_cycle;Max_cycle;Signal;HPM_P1;HPM_P2
2023/07/06 00:00:51;;;;;;;0.10;0.10;;;;;;;;;;5116546;27;20400;-49
2023/07/06 00:03:16;;;;;;;0.10;0.10;;;;;;;;;;5124413;28;20075;-50
2023/07/06 00:05:44;;;;;;;0.10;0.10;;;;;;;;;;5111182;28;20057;-50
2023/07/06 00:08:11;;;;;;;0.10;0.10;;;;;;;;;;5122998;28;20048;-49
2023/07/06 00:10:39;;;;;;;0.10;0.10;;;;;;;;;;5125353;28;20047;-50
2023/07/06 00:13:05;;;;;;;0.10;0.10;;;;;;;;;;5125632;28;20059;-50
2023/07/06 00:15:33;;;;;;;0.10;0.10;;;;;;;;;;5122369;28;20056;-49
2023/07/06 00:18:02;;;;;;;0.10;0.10;;;;;;;;;;5125013;28;20066;-49
2023/07/06 00:20:30;;;;;;;0.10;0.10;;;;;;;;;;5125979;28;20050;-49
2023/07/06 00:22:55;;;;;;;0.10;0.10;;;;;;;;;;5126366;28;20085;-50
2023/07/06 00:25:21;;;;;;;0.10;0.10;;;;;;;;;;5126434;28;20044;-47
2023/07/06 00:27:48;;;;;;;0.10;0.10;;;;;;;;;;5125475;28;20050;-48
2023/07/06 00:30:18;;;;;;;0.10;0.10;;;;;;;;;;5126078;28;20047;-50
2023/07/06 00:32:44;;;;;;;0.10;0.10;;;;;;;;;;5126426;28;20054;-50
2023/07/06 00:35:10;;;;;;;0.10;0.10;;;;;;;;;;5125231;28;20507;-49
2023/07/06 00:37:38;;;;;;;0.10;0.10;;;;;;;;;;5126368;28;20051;-49
2023/07/06 00:40:08;;;;;;;0.13;0.13;;;;;;;;;;5125539;28;20233;-50
2023/07/06 00:42:33;;;;;;;0.13;0.13;;;;;;;;;;5108824;28;20407;-49
2023/07/06 00:44:59;;;;;;;0.10;0.10;;;;;;;;;;5105062;28;20510;-50
2023/07/06 00:47:45;;;;;;;0.10;0.10;;;;;;;;;;5106809;28;20130;-49
2023/07/06 00:50:13;;;;;;;0.10;0.10;;;;;;;;;;5098192;28;20403;-50
2023/07/06 00:52:41;;;;;;;0.10;0.10;;;;;;;;;;5129696;28;20043;-50
2023/07/06 00:55:07;;;;;;;;;;;;;;;;;;5130313;28;20111;-49
2023/07/06 00:57:35;;;;;;;0.10;0.10;;;;;;;;;;5129634;28;19958;-50
2023/07/06 01:00:02;;;;;;;0.10;0.10;;;;;;;;;;5124979;28;20067;-50
2023/07/06 01:02:30;;;;;;;0.10;0.10;;;;;;;;;;5129689;27;20485;-50
2023/07/06 01:04:56;;;;;;;0.10;0.10;;;;;;;;;;5129676;28;20049;-49
2023/07/06 01:07:24;;;;;;;0.10;0.10;;;;;;;;;;5129829;28;20043;-49
2023/07/06 01:09:50;;;;;;;0.10;0.10;;;;;;;;;;5128542;28;20074;-49
2023/07/06 01:12:16;;;;;;;0.10;0.10;;;;;;;;;;5129078;28;20043;-49
2023/07/06 01:14:42;;;;;;;0.10;0.10;;;;;;;;;;5129359;28;20086;-49
2023/07/06 01:17:18;;;;;;;0.20;0.20;;;;;;;;;;5129129;28;20043;-50
2023/07/06 01:22:38;;;;;;;0.10;0.10;;;;;;;;;;5186460;27;20137;-50
2023/07/06 01:28:05;;;;;;;0.10;0.10;;;;;;;;;;5186683;27;20145;-50
2023/07/06 01:33:11;;;;;;;0.10;0.10;;;;;;;;;;5185702;27;20637;-48
2023/07/06 01:35:43;;;;;;;0.10;0.10;;;;;;;;;;5165193;27;20455;-49
2023/07/06 01:38:09;;;;;;;0.10;0.10;;;;;;;;;;5164901;27;20591;-49
2023/07/06 01:40:35;;;;;;;0.10;0.10;;;;;;;;;;5163904;27;20054;-49
2023/07/06 01:43:00;;;;;;;0.10;0.10;;;;;;;;;;5152779;27;20126;-49
2023/07/06 01:45:28;;;;;;;0.10;0.10;;;;;;;;;;5164934;27;20042;-49
2023/07/06 01:47:56;;;;;;;0.10;0.10;;;;;;;;;;5165241;27;20057;-49
2023/07/06 01:50:29;;;;;;;0.10;0.10;;;;;;;;;;5164225;27;20081;-49
2023/07/06 01:53:04;;;;;;;0.10;0.10;;;;;;;;;;5164738;27;20050;-49
2023/07/06 01:55:33;;;;;;;0.10;0.10;;;;;;;;;;5165384;27;20046;-49
2023/07/06 01:58:09;;;;;;;0.10;0.10;;;;;;;;;;5165079;27;20042;-50
2023/07/06 02:00:36;;;;;;;0.10;0.10;;;;;;;;;;5160144;27;20494;-49
2023/07/06 02:03:05;;;;;;;0.30;0.20;;;;;;;;;;5143900;27;20046;-50
2023/07/06 02:05:31;;;;;;;0.10;0.10;;;;;;;;;;5144179;27;20054;-49
2023/07/06 02:07:57;;;;;;;0.10;0.10;;;;;;;;;;5144346;27;20073;-49
2023/07/06 02:10:23;;;;;;;0.10;0.10;;;;;;;;;;5136143;27;20441;-50
2023/07/06 02:12:49;;;;;;;0.10;0.10;;;;;;;;;;5123170;28;20050;-48
2023/07/06 02:15:16;;;;;;;0.10;0.10;;;;;;;;;;5123201;28;20054;-49
2023/07/06 02:17:42;;;;;;;0.10;0.10;;;;;;;;;;5123372;28;20309;-50
2023/07/06 02:20:08;;;;;;;0.20;0.20;;;;;;;;;;5130691;27;20070;-50
2023/07/06 02:22:34;;;;;;;0.15;0.15;;;;;;;;;;5143447;27;20465;-48
2023/07/06 02:25:00;;;;;;;0.10;0.10;;;;;;;;;;5143578;27;20107;-50
2023/07/06 02:27:25;;;;;;;0.10;0.10;;;;;;;;;;5144151;27;20053;-48
2023/07/06 02:29:50;;;;;;;0.10;0.10;;;;;;;;;;5142469;27;20047;-48
2023/07/06 02:32:16;;;;;;;0.10;0.10;;;;;;;;;;5143028;27;20452;-49
2023/07/06 02:34:41;;;;;;;0.10;0.10;;;;;;;;;;5144048;27;20046;-50
2023/07/06 02:37:08;;;;;;;0.10;0.10;;;;;;;;;;5143884;27;20047;-49
2023/07/06 02:39:33;;;;;;;0.10;0.10;;;;;;;;;;5142190;27;20047;-50
2023/07/06 02:41:59;;;;;;;0.10;0.10;;;;;;;;;;5143232;27;20043;-51
2023/07/06 02:44:24;;;;;;;0.10;0.10;;;;;;;;;;5146382;27;20043;-50
2023/07/06 02:46:50;;;;;;;0.10;0.10;;;;;;;;;;5133222;27;20131;-50
2023/07/06 02:49:16;;;;;;;0.20;0.20;;;;;;;;;;5129880;27;20138;-49
2023/07/06 02:51:42;;;;;;;0.10;0.10;;;;;;;;;;5111299;27;20047;-50
2023/07/06 02:54:10;;;;;;;0.20;0.20;;;;;;;;;;5109648;28;20479;-50
2023/07/06 02:56:35;;;;;;;0.10;0.10;;;;;;;;;;5109117;28;20044;-49
2023/07/06 02:59:01;;;;;;;0.10;0.10;;;;;;;;;;5108486;28;20473;-49
2023/07/06 03:01:26;;;;;;;0.10;0.10;;;;;;;;;;5108968;28;20047;-50
2023/07/06 03:03:52;;;;;;;0.10;0.10;;;;;;;;;;5125165;28;20047;-49
2023/07/06 03:06:18;;;;;;;0.10;0.10;;;;;;;;;;5129817;27;20069;-49
2023/07/06 03:08:44;;;;;;;0.13;0.13;;;;;;;;;;5129373;27;20435;-49
2023/07/06 03:11:10;;;;;;;0.10;0.10;;;;;;;;;;5114719;27;20056;-50
2023/07/06 03:13:36;;;;;;;0.10;0.10;;;;;;;;;;5108953;28;20054;-50
2023/07/06 03:16:04;;;;;;;0.10;0.10;;;;;;;;;;5108740;28;20278;-50
2023/07/06 03:18:30;;;;;;;0.10;0.10;;;;;;;;;;5108745;28;20047;-49
2023/07/06 03:20:56;;;;;;;0.10;0.10;;;;;;;;;;5109816;28;20043;-50
2023/07/06 03:23:21;;;;;;;0.20;0.20;;;;;;;;;;5128569;28;20054;-50
2023/07/06 03:25:50;;;;;;;0.10;0.10;;;;;;;;;;5129331;27;20051;-50
2023/07/06 03:28:15;;;;;;;0.10;0.10;;;;;;;;;;5128968;27;20158;-50
2023/07/06 03:30:43;;;;;;;0.10;0.10;;;;;;;;;;5118970;27;20047;-49
2023/07/06 03:33:09;;;;;;;0.10;0.10;;;;;;;;;;5124482;28;20053;-49
2023/07/06 03:35:34;;;;;;;0.10;0.10;;;;;;;;;;5129160;27;20113;-49
2023/07/06 03:38:00;;;;;;;0.10;0.10;;;;;;;;;;5129059;27;20051;-50
2023/07/06 03:40:29;;;;;;;0.10;0.10;;;;;;;;;;5127249;27;20051;-50
2023/07/06 03:42:56;;;;;;;0.10;0.10;;;;;;;;;;5129234;28;20050;-50
2023/07/06 03:45:21;;;;;;;0.10;0.10;;;;;;;;;;5128949;28;20054;-50
2023/07/06 03:47:47;;;;;;;0.10;0.10;;;;;;;;;;5128601;28;20051;-49
2023/07/06 03:50:15;;;;;;;0.10;0.10;;;;;;;;;;5122976;27;20075;-50
2023/07/06 03:52:41;;;;;;;0.10;0.10;;;;;;;;;;5108202;28;20051;-49
2023/07/06 03:55:12;;;;;;;0.10;0.10;;;;;;;;;;5106909;28;20074;-50
2023/07/06 03:57:38;;;;;;;0.10;0.10;;;;;;;;;;5107878;28;20428;-50
2023/07/06 04:00:19;;;;;;;0.10;0.10;;;;;;;;;;5107555;28;20138;-48
2023/07/06 04:02:46;;;;;;;0.10;0.10;;;;;;;;;;5107441;28;20058;-50
2023/07/06 04:05:12;;;;;;;0.10;0.10;;;;;;;;;;5119767;28;20066;-48
2023/07/06 04:07:38;;;;;;;0.10;0.10;;;;;;;;;;5128658;27;20067;-50
2023/07/06 04:10:05;;;;;;;0.10;0.10;;;;;;;;;;5122938;27;20455;-50
2023/07/06 04:12:32;;;;;;;0.10;0.10;;;;;;;;;;5107210;28;20052;-49
2023/07/06 04:14:58;;;;;;;0.10;0.10;;;;;;;;;;5107823;28;20055;-50
2023/07/06 04:17:24;;;;;;;0.10;0.10;;;;;;;;;;5107481;28;20312;-55
2023/07/06 04:19:53;;;;;;;0.10;0.10;;;;;;;;;;5107071;28;20224;-49
2023/07/06 04:22:19;;;;;;;0.10;0.10;;;;;;;;;;5107327;28;21414;-50
2023/07/06 04:24:44;;;;;;;0.10;0.10;;;;;;;;;;5125726;28;20058;-48
2023/07/06 04:27:10;;;;;;;0.10;0.10;;;;;;;;;;5128128;28;20043;-49
2023/07/06 04:29:35;;;;;;;0.20;0.20;;;;;;;;;;5127744;28;20047;-46
2023/07/06 04:32:01;;;;;;;0.10;0.10;;;;;;;;;;5127276;28;20411;-49
2023/07/06 04:34:27;;;;;;;0.10;0.10;;;;;;;;;;5127221;28;20050;-50
2023/07/06 04:36:52;;;;;;;0.10;0.10;;;;;;;;;;5127060;27;20373;-50
2023/07/06 04:39:18;;;;;;;0.10;0.10;;;;;;;;;;5120369;27;20063;-50
2023/07/06 04:41:43;;;;;;;0.10;0.10;;;;;;;;;;5124846;27;20058;-49
2023/07/06 04:44:10;;;;;;;0.10;0.10;;;;;;;;;;5127922;28;20419;-50
2023/07/06 04:46:36;;;;;;;0.10;0.10;;;;;;;;;;5127222;28;20047;-49
2023/07/06 04:49:02;;;;;;;0.20;0.20;;;;;;;;;;5127314;28;20058;-48
2023/07/06 04:51:28;;;;;;;0.10;0.10;;;;;;;;;;5126715;28;20235;-50
2023/07/06 04:53:53;;;;;;;0.10;0.10;;;;;;;;;;5127438;28;20047;-50
2023/07/06 04:56:21;;;;;;;0.10;0.10;;;;;;;;;;5127496;28;20047;-48
2023/07/06 04:58:47;;;;;;;0.10;0.10;;;;;;;;;;5127291;28;20313;-50
2023/07/06 05:01:14;;;;;;;0.10;0.10;;;;;;;;;;5126645;27;20055;-48
2023/07/06 05:03:40;;;;;;;0.10;0.10;;;;;;;;;;5127136;28;20043;-50
2023/07/06 05:06:08;;;;;;;0.10;0.10;;;;;;;;;;5126996;27;20456;-49
2023/07/06 05:08:34;;;;;;;0.10;0.10;;;;;;;;;;5125180;28;20427;-50
2023/07/06 05:11:03;;;;;;;0.10;0.10;;;;;;;;;;5113947;27;20051;-49
2023/07/06 05:13:29;;;;;;;0.10;0.10;;;;;;;;;;5106940;28;20069;-50
2023/07/06 05:15:55;;;;;;;0.10;0.10;;;;;;;;;;5106882;28;20101;-49
2023/07/06 05:18:21;;;;;;;0.10;0.10;;;;;;;;;;5106428;28;20055;-49
2023/07/06 05:20:49;;;;;;;0.20;0.20;;;;;;;;;;5106156;28;20248;-50
2023/07/06 05:23:19;;;;;;;0.10;0.10;;;;;;;;;;5106637;28;20071;-49
2023/07/06 05:25:44;;;;;;;0.10;0.10;;;;;;;;;;5118143;28;20043;-49
2023/07/06 05:28:11;;;;;;;0.10;0.10;;;;;;;;;;5126905;28;20362;-49
2023/07/06 05:30:38;;;;;;;0.10;0.10;;;;;;;;;;5117396;27;20067;-49
2023/07/06 05:33:03;;;;;;;0.20;0.20;;;;;;;;;;5106015;28;20082;-49
2023/07/06 05:35:29;;;;;;;0.10;0.10;;;;;;;;;;5112294;28;20050;-50
2023/07/06 05:37:55;;;;;;;0.10;0.10;;;;;;;;;;5126581;28;20544;-49
2023/07/06 05:40:21;;;;;;;0.10;0.10;;;;;;;;;;5120588;27;20138;-50
2023/07/06 05:42:47;;;;;;;0.10;0.10;;;;;;;;;;5096390;28;20688;-50
2023/07/06 05:45:13;;;;;;;0.10;0.10;;;;;;;;;;5125771;28;20043;-49
2023/07/06 05:47:38;;;;;;;0.10;0.10;;;;;;;;;;5126757;28;20058;-48
2023/07/06 05:50:04;;;;;;;0.15;0.15;;;;;;;;;;5126267;28;20146;-50
2023/07/06 05:52:30;;;;;;;0.10;0.10;;;;;;;;;;5126029;28;20101;-49
2023/07/06 05:54:55;;;;;;;0.10;0.10;;;;;;;;;;5126540;28;20187;-50
2023/07/06 05:57:21;;;;;;;0.10;0.10;;;;;;;;;;5126505;28;20047;-48
2023/07/06 05:59:48;;;;;;;0.10;0.10;;;;;;;;;;5125879;28;20143;-49
2023/07/06 06:02:17;;;;;;;0.20;0.20;;;;;;;;;;5126362;27;20051;-48
2023/07/06 06:04:43;;;;;;;0.25;0.25;;;;;;;;;;5126556;28;20092;-49
2023/07/06 06:07:09;;;;;;;0.17;0.17;;;;;;;;;;5126754;28;20058;-49
2023/07/06 06:09:35;;;;;;;0.10;0.10;;;;;;;;;;5125859;27;20151;-49
2023/07/06 06:12:01;;;;;;;0.10;0.10;;;;;;;;;;5126041;28;20438;-50
2023/07/06 06:14:26;;;;;;;0.10;0.10;;;;;;;;;;5126530;28;20054;-49
2023/07/06 06:16:52;;;;;;;0.10;0.10;;;;;;;;;;5126155;28;20050;-48
2023/07/06 06:19:17;;;;;;;0.10;0.10;;;;;;;;;;5129132;27;20047;-50
2023/07/06 06:21:43;;;;;;;0.10;0.10;;;;;;;;;;5129991;28;20050;-50
2023/07/06 06:24:09;;;;;;;0.10;0.10;;;;;;;;;;5130427;28;20070;-49
2023/07/06 06:26:35;;;;;;;0.10;0.10;;;;;;;;;;5130557;28;20470;-49
2023/07/06 06:29:01;;;;;;;0.10;0.10;;;;;;;;;;5130291;28;20051;-49
2023/07/06 06:31:27;;;;;;;0.10;0.10;;;;;;;;;;5113821;27;20075;-50
2023/07/06 06:33:53;;;;;;;0.10;0.10;;;;;;;;;;5109584;28;20221;-50
2023/07/06 06:36:19;;;;;;;0.10;0.10;;;;;;;;;;5109561;28;20070;-50
2023/07/06 06:38:44;;;;;;;0.10;0.10;;;;;;;;;;5131305;27;20100;-49
2023/07/06 06:41:10;;;;;;;0.10;0.10;;;;;;;;;;5122839;27;20071;-49
2023/07/06 06:43:38;;;;;;;0.10;0.10;;;;;;;;;;5109422;28;20051;-48
2023/07/06 06:46:08;;;;;;;0.10;0.10;;;;;;;;;;5123800;28;20255;-49
2023/07/06 06:48:34;;;;;;;0.10;0.10;;;;;;;;;;5129280;28;20050;-49
2023/07/06 06:51:00;;;;;;;0.10;0.10;;;;;;;;;;5129215;28;20069;-50
2023/07/06 06:53:26;;;;;;;0.10;0.10;;;;;;;;;;5129147;28;20076;-50
2023/07/06 06:55:52;;;;;;;0.10;0.10;;;;;;;;;;5129748;27;20087;-49
2023/07/06 06:58:20;;;;;;;0.20;0.20;;;;;;;;;;5129204;27;20138;-47
2023/07/06 07:00:46;;;;;;;;;;;;;;;;;;5118931;27;20047;-50
2023/07/06 07:03:13;;;;;;;0.10;0.10;;;;;;;;;;5108715;28;19976;-49
2023/07/06 07:05:39;;;;;;;0.20;0.20;;;;;;;;;;5108948;28;20071;-50
2023/07/06 07:08:04;;;;;;;0.10;0.10;;;;;;;;;;5108937;28;20544;-48
2023/07/06 07:10:30;;;;;;;0.10;0.10;;;;;;;;;;5120780;28;20050;-50
2023/07/06 07:12:55;;;;;;;0.10;0.10;;;;;;;;;;5128846;28;20077;-50
2023/07/06 07:15:21;;;;;;;0.10;0.10;;;;;;;;;;5129104;28;20047;-49
2023/07/06 07:17:47;;;;;;;0.10;0.10;;;;;;;;;;5128609;28;20574;-50
2023/07/06 07:20:13;;;;;;;0.10;0.10;;;;;;;;;;5127692;28;20043;-49
2023/07/06 07:22:39;;;;;;;0.10;0.10;;;;;;;;;;5128685;28;20251;-50
2023/07/06 07:25:05;;;;;;;0.10;0.10;;;;;;;;;;5128851;28;20130;-50
2023/07/06 07:27:34;;;;;;;0.10;0.10;;;;;;;;;;5129352;28;20070;-50
2023/07/06 07:30:01;;;;;;;0.10;0.10;;;;;;;;;;5124814;27;20075;-49
2023/07/06 07:32:29;;;;;;;0.10;0.10;;;;;;;;;;5108406;28;20075;-50
2023/07/06 07:34:56;;;;;;;0.10;0.10;;;;;;;;;;5108854;28;20471;-50
2023/07/06 07:37:21;;;;;;;0.10;0.10;;;;;;;;;;5108633;28;20055;-46
2023/07/06 07:39:48;;;;;;;0.10;0.10;;;;;;;;;;5120912;28;20514;-49
2023/07/06 07:42:14;;;;;;;0.10;0.10;;;;;;;;;;5128943;28;20065;-50
2023/07/06 07:44:41;;;;;;;0.10;0.10;;;;;;;;;;5128808;28;20407;-49
2023/07/06 07:47:07;;;;;;;0.10;0.10;;;;;;;;;;5128241;28;20060;-49
2023/07/06 07:49:32;;;;;;;0.10;0.10;;;;;;;;;;5128868;28;20075;-50
2023/07/06 07:51:58;;;;;;;0.10;0.10;;;;;;;;;;5127729;28;20065;-49
2023/07/06 07:54:23;;;;;;;0.10;0.10;;;;;;;;;;5128543;28;20052;-48
2023/07/06 07:56:53;;;;;;;0.10;0.10;;;;;;;;;;5128691;28;20054;-50
2023/07/06 07:59:19;;;;;;;0.10;0.10;;;;;;;;;;5128295;27;20531;-50
2023/07/06 08:01:46;;;;;;;0.10;0.10;;;;;;;;;;5109858;27;20294;-50
2023/07/06 08:04:14;;;;;;;0.10;0.10;;;;;;;;;;5107956;28;20131;-50
2023/07/06 08:06:40;;;;;;;0.10;0.10;;;;;;;;;;5108316;28;20525;-51
2023/07/06 08:09:07;;;;;;;0.10;0.10;;;;;;;;;;5116751;28;20043;-52
2023/07/06 08:11:35;;;;;;;0.10;0.10;;;;;;;;;;5125554;28;20050;-52
2023/07/06 08:14:04;;;;;;;;;;;;;;;;;;5128407;28;20051;-52
2023/07/06 08:16:32;;;;;;;0.10;0.10;;;;;;;;;;5127322;28;19930;-52
2023/07/06 08:18:58;;;;;;;0.10;0.10;;;;;;;;;;5107096;28;20052;-49
2023/07/06 08:21:43;;;;;;;0.10;0.10;;;;;;;;;;5109738;28;20059;-53
2023/07/06 08:24:29;;;;;;;0.10;0.10;;;;;;;;;;5111637;28;20066;-51
2023/07/06 08:26:55;;;;;;;0.10;0.10;;;;;;;;;;5128163;28;20047;-52
2023/07/06 08:29:21;;;;;;;0.10;0.10;;;;;;;;;;5127412;28;20055;-52
2023/07/06 08:31:48;;;;;;;0.10;0.10;;;;;;;;;;5125344;27;20097;-53
2023/07/06 08:34:16;;;;;;;0.10;0.10;;;;;;;;;;5127931;27;20086;-52
2023/07/06 08:36:43;;;;;;;0.10;0.10;;;;;;;;;;5127723;27;20039;-52
2023/07/06 08:39:08;;;;;;;0.10;0.10;;;;;;;;;;5132477;27;20146;-52
2023/07/06 08:41:37;;;;;;;0.10;0.10;;;;;;;;;;5128921;27;20632;-52
2023/07/06 08:44:03;;;;;;;0.10;0.10;;;;;;;;;;5127595;27;20051;-51
2023/07/06 08:46:30;;;;;;;0.10;0.10;;;;;;;;;;5127222;27;20043;-52
2023/07/06 08:48:56;;;;;;;0.10;0.10;;;;;;;;;;5126873;27;20348;-52
2023/07/06 08:51:24;;;;;;;0.10;0.10;;;;;;;;;;5111850;27;20059;-51
2023/07/06 08:53:52;;;;;;;0.10;0.10;;;;;;;;;;5107145;28;20086;-52
2023/07/06 08:56:20;;;;;;;0.10;0.10;;;;;;;;;;5112522;28;20047;-52
2023/07/06 08:58:46;;;;;;;0.20;0.20;;;;;;;;;;5127456;28;20051;-51
2023/07/06 09:01:14;;;;;;;0.13;0.13;;;;;;;;;;5127047;27;20215;-52
2023/07/06 09:03:40;;;;;;;;;;;;;;;;;;5128176;28;20059;-52
2023/07/06 09:06:08;;;;;;;0.10;0.10;;;;;;;;;;5127783;28;20009;-52
2023/07/06 09:08:33;;;;;;;0.10;0.10;;;;;;;;;;5127607;28;20047;-52
2023/07/06 09:10:59;;;;;;;0.10;0.10;;;;;;;;;;5126244;28;20134;-52
2023/07/06 09:13:46;;;;;;;0.10;0.10;;;;;;;;;;5112153;28;20120;-52
2023/07/06 09:16:12;;;;;;;0.10;0.10;;;;;;;;;;5127660;28;20054;-52
2023/07/06 09:18:38;;;;;;;0.10;0.10;;;;;;;;;;5127608;28;20047;-52
2023/07/06 09:21:04;;;;;;;0.10;0.10;;;;;;;;;;5126929;28;20087;-51
2023/07/06 09:23:30;;;;;;;0.10;0.10;;;;;;;;;;5127582;28;20047;-52
2023/07/06 09:25:56;;;;;;;0.10;0.10;;;;;;;;;;5127478;28;20463;-51
2023/07/06 09:28:23;;;;;;;0.10;0.10;;;;;;;;;;5127687;28;20057;-52
2023/07/06 09:31:04;;;;;;;0.10;0.10;;;;;;;;;;5125770;28;20050;-51
2023/07/06 09:33:30;;;;;;;0.10;0.10;;;;;;;;;;5126224;27;20463;-52
2023/07/06 09:35:58;;;;;;;0.10;0.10;;;;;;;;;;5127023;27;20048;-53
2023/07/06 09:38:25;;;;;;;0.10;0.10;;;;;;;;;;5133780;27;20080;-51
2023/07/06 09:40:52;;;;;;;0.13;0.13;;;;;;;;;;5126306;27;20047;-51
2023/07/06 09:43:22;;;;;;;0.10;0.10;;;;;;;;;;5126153;28;20051;-52
2023/07/06 09:45:49;;;;;;;0.10;0.10;;;;;;;;;;5126390;27;20471;-51
2023/07/06 09:48:22;;;;;;;0.10;0.10;;;;;;;;;;5126782;28;20090;-51
2023/07/06 09:50:50;;;;;;;0.20;0.20;;;;;;;;;;5125923;28;20047;-52
2023/07/06 09:53:34;;;;;;;0.10;0.10;;;;;;;;;;5127105;27;20054;-52
2023/07/06 09:56:00;;;;;;;0.10;0.10;;;;;;;;;;5130451;28;20055;-52
2023/07/06 09:58:27;;;;;;;0.10;0.10;;;;;;;;;;5129710;28;20051;-53
2023/07/06 10:00:57;;;;;;;0.10;0.10;;;;;;;;;;5119918;27;20051;-52
2023/07/06 10:03:34;;;;;;;0.10;0.10;;;;;;;;;;5129420;28;20079;-51
2023/07/06 10:06:17;;;;;;;0.10;0.10;;;;;;;;;;5130128;28;20511;-51
2023/07/06 10:08:47;;;;;;;0.10;0.10;;;;;;;;;;5130279;28;20661;-51
2023/07/06 10:11:22;;;;;;;0.10;0.10;;;;;;;;;;5128694;28;20079;-52
2023/07/06 10:13:56;;;;;;;0.10;0.10;;;;;;;;;;5129889;28;20077;-51
2023/07/06 10:19:04;;;;;;;0.10;0.10;;;;;;;;;;5185775;27;20441;-49
2023/07/06 10:21:36;;;;;;;0.17;0.17;;;;;;;;;;5165205;27;20046;-50
2023/07/06 10:24:08;;;;;;;0.20;0.20;;;;;;;;;;5165835;27;20051;-48
2023/07/06 10:26:34;;;;;;;0.10;0.10;;;;;;;;;;5166143;27;20111;-48
2023/07/06 10:29:03;;;;;;;0.20;0.20;;;;;;;;;;5165834;27;20051;-49
2023/07/06 10:31:33;;;;;;;0.10;0.10;;;;;;;;;;5165059;27;20043;-50
2023/07/06 10:34:07;;;;;;;0.10;0.10;;;;;;;;;;5164906;27;20052;-49
2023/07/06 10:36:34;;;;;;;0.10;0.10;;;;;;;;;;5156136;27;20047;-48
2023/07/06 10:39:02;;;;;;;0.10;0.10;;;;;;;;;;5177751;27;20046;-48
2023/07/06 10:41:29;;;;;;;0.10;0.10;;;;;;;;;;5169111;27;20046;-50
2023/07/06 10:44:01;;;;;;;0.10;0.10;;;;;;;;;;5165112;27;20577;-50
2023/07/06 10:46:31;;;;;;;0.10;0.10;;;;;;;;;;5165015;27;20042;-50
2023/07/06 10:49:12;;;;;;;0.10;0.10;;;;;;;;;;5165403;27;20095;-49
2023/07/06 10:51:46;;;;;;;0.10;0.10;;;;;;;;;;5164588;27;20093;-49
2023/07/06 10:54:16;;;;;;;0.10;0.10;;;;;;;;;;5164665;27;20406;-50
2023/07/06 10:56:45;;;;;;;0.10;0.10;;;;;;;;;;5164761;27;20406;-50
2023/07/06 10:59:23;;;;;;;0.10;0.10;;;;;;;;;;5164993;27;20054;-50
2023/07/06 11:01:59;;;;;;;0.17;0.17;;;;;;;;;;5146838;27;20089;-49
2023/07/06 11:07:35;;;;;;;0.20;0.20;;;;;;;;;;5186281;27;20335;-49
2023/07/06 11:10:14;;;;;;;0.10;0.10;;;;;;;;;;5148163;27;20046;-48
2023/07/06 11:12:57;;;;;;;0.10;0.10;;;;;;;;;;5164587;27;20516;-49
2023/07/06 11:15:25;;;;;;;0.10;0.10;;;;;;;;;;5164822;27;20053;-48
2023/07/06 11:17:52;;;;;;;0.10;0.10;;;;;;;;;;5165070;27;20289;-49
2023/07/06 11:20:23;;;;;;;0.10;0.10;;;;;;;;;;5164155;27;20054;-49
2023/07/06 11:22:51;;;;;;;0.10;0.10;;;;;;;;;;5164731;27;20521;-49
2023/07/06 11:25:19;;;;;;;0.10;0.10;;;;;;;;;;5164622;27;20081;-50
2023/07/06 11:27:48;;;;;;;0.20;0.20;;;;;;;;;;5164859;27;20602;-49
2023/07/06 11:30:17;;;;;;;0.10;0.10;;;;;;;;;;5164723;27;20180;-50
2023/07/06 11:32:52;;;;;;;0.10;0.10;;;;;;;;;;5164628;27;20535;-50
2023/07/06 11:35:25;;;;;;;0.10;0.10;;;;;;;;;;5162937;27;20062;-50
2023/07/06 11:38:12;;;;;;;0.32;0.20;;;;;;;;;;5165213;27;20189;-48
2023/07/06 11:40:48;;;;;;;0.10;0.10;;;;;;;;;;5150849;27;20039;-53
2023/07/06 11:43:23;;;;;;;0.10;0.10;;;;;;;;;;5143408;27;20475;-53
2023/07/06 11:45:58;;;;;;;0.20;0.20;;;;;;;;;;5147530;27;20085;-53
2023/07/06 11:48:45;;;;;;;0.10;0.10;;;;;;;;;;5163884;27;20050;-52
2023/07/06 11:51:10;;;;;;;0.10;0.10;;;;;;;;;;5149108;27;20051;-53
2023/07/06 11:53:54;;;;;;;0.13;0.13;;;;;;;;;;5164252;27;20441;-52
2023/07/06 11:56:33;;;;;;;0.10;0.10;;;;;;;;;;5163934;27;20050;-52
2023/07/06 11:59:01;;;;;;;0.10;0.10;;;;;;;;;;5164705;27;20606;-53
2023/07/06 12:01:46;;;;;;;0.10;0.10;;;;;;;;;;5152113;27;20047;-50
2023/07/06 12:04:13;;;;;;;0.20;0.20;;;;;;;;;;5143537;27;20146;-53
2023/07/06 12:06:39;;;;;;;0.10;0.10;;;;;;;;;;5144093;27;20525;-53
2023/07/06 12:09:08;;;;;;;0.10;0.10;;;;;;;;;;5143306;27;20055;-49
2023/07/06 12:11:35;;;;;;;0.10;0.10;;;;;;;;;;5126422;27;20047;-53
2023/07/06 12:14:00;;;;;;;0.10;0.10;;;;;;;;;;5123023;28;20171;-51
2023/07/06 12:16:27;;;;;;;0.10;0.10;;;;;;;;;;5122333;28;20488;-52
2023/07/06 12:19:03;;;;;;;0.10;0.10;;;;;;;;;;5109096;28;20498;-52
2023/07/06 12:21:30;;;;;;;0.10;0.10;;;;;;;;;;5109042;28;20734;-53
2023/07/06 12:23:57;;;;;;;0.10;0.10;;;;;;;;;;5109418;28;20070;-52
2023/07/06 12:26:23;;;;;;;0.10;0.10;;;;;;;;;;5109154;28;20051;-52
2023/07/06 12:28:49;;;;;;;0.10;0.10;;;;;;;;;;5109413;28;20437;-52
2023/07/06 12:31:17;;;;;;;0.10;0.10;;;;;;;;;;5108996;28;20044;-53
2023/07/06 12:33:42;;;;;;;0.10;0.10;;;;;;;;;;5108773;28;20533;-52
2023/07/06 12:36:11;;;;;;;0.10;0.10;;;;;;;;;;5121994;27;20043;-52
2023/07/06 12:38:38;;;;;;;0.10;0.10;;;;;;;;;;5130589;27;20077;-52
2023/07/06 12:41:19;;;;;;;0.10;0.10;;;;;;;;;;5128607;27;20046;-53
2023/07/06 12:43:46;;;;;;;0.10;0.10;;;;;;;;;;5129303;28;20483;-52
2023/07/06 12:46:12;;;;;;;0.10;0.10;;;;;;;;;;5128878;28;20046;-53
2023/07/06 12:48:42;;;;;;;0.10;0.10;;;;;;;;;;5128924;28;20127;-53
2023/07/06 12:51:11;;;;;;;0.10;0.10;;;;;;;;;;5104426;28;20047;-52
2023/07/06 12:53:37;;;;;;;0.10;0.10;;;;;;;;;;5108647;28;20072;-52
2023/07/06 12:56:09;;;;;;;0.10;0.10;;;;;;;;;;5117320;28;20051;-52
2023/07/06 12:58:36;;;;;;;0.10;0.10;;;;;;;;;;5129099;28;20145;-51
2023/07/06 13:01:13;;;;;;;0.10;0.10;;;;;;;;;;5128255;27;20074;-52
2023/07/06 13:03:58;;;;;;;0.10;0.10;;;;;;;;;;5128241;28;20479;-50
2023/07/06 13:06:25;;;;;;;0.10;0.10;;;;;;;;;;5113533;28;20487;-52
2023/07/06 13:08:53;;;;;;;0.10;0.10;;;;;;;;;;5128789;28;20507;-52
2023/07/06 13:11:21;;;;;;;0.20;0.20;;;;;;;;;;5128309;28;20135;-52
2023/07/06 13:13:47;;;;;;;;;;;;;;;;;;5129474;28;20172;-51
2023/07/06 13:16:13;;;;;;;0.10;0.10;;;;;;;;;;5128923;28;19998;-52
2023/07/06 13:18:39;;;;;;;0.10;0.10;;;;;;;;;;5129001;28;20058;-52
2023/07/06 13:21:09;;;;;;;0.10;0.10;;;;;;;;;;5128242;28;20055;-51
2023/07/06 13:23:35;;;;;;;0.10;0.10;;;;;;;;;;5128890;28;20092;-52
2023/07/06 13:26:00;;;;;;;0.10;0.10;;;;;;;;;;5129114;28;20039;-51
2023/07/06 13:28:27;;;;;;;0.10;0.10;;;;;;;;;;5128454;27;20050;-52
2023/07/06 13:30:52;;;;;;;0.17;0.17;;;;;;;;;;5128138;28;20043;-53
2023/07/06 13:33:19;;;;;;;0.10;0.10;;;;;;;;;;5128955;28;20403;-53
2023/07/06 13:35:46;;;;;;;0.13;0.13;;;;;;;;;;5122319;27;20574;-49
2023/07/06 13:38:13;;;;;;;0.10;0.10;;;;;;;;;;5132262;27;20058;-49
2023/07/06 13:40:40;;;;;;;0.13;0.13;;;;;;;;;;5126699;27;20082;-48
2023/07/06 13:43:11;;;;;;;0.10;0.10;;;;;;;;;;5128656;27;20058;-49
2023/07/06 13:45:40;;;;;;;0.10;0.10;;;;;;;;;;5126992;28;20053;-50
2023/07/06 13:48:07;;;;;;;0.10;0.10;;;;;;;;;;5129027;27;20047;-50
2023/07/06 13:50:32;;;;;;;0.10;0.10;;;;;;;;;;5127726;27;20514;-48
2023/07/06 13:52:58;;;;;;;0.10;0.10;;;;;;;;;;5127835;28;20138;-50
2023/07/06 13:55:26;;;;;;;0.10;0.10;;;;;;;;;;5128332;28;20043;-50
2023/07/06 13:57:52;;;;;;;0.10;0.10;;;;;;;;;;5128040;28;20471;-49
2023/07/06 14:00:17;;;;;;;0.10;0.10;;;;;;;;;;5121206;27;20047;-50
2023/07/06 14:02:47;;;;;;;0.10;0.10;;;;;;;;;;5107963;28;20078;-50
2023/07/06 14:05:14;;;;;;;0.10;0.10;;;;;;;;;;5113861;28;20070;-49
2023/07/06 14:07:40;;;;;;;0.20;0.20;;;;;;;;;;5126550;28;20289;-49
2023/07/06 14:10:06;;;;;;;0.10;0.10;;;;;;;;;;5127371;28;20449;-50
2023/07/06 14:12:32;;;;;;;0.10;0.10;;;;;;;;;;5127644;28;20069;-49
2023/07/06 14:14:58;;;;;;;0.20;0.20;;;;;;;;;;5127796;28;20047;-49
2023/07/06 14:17:23;;;;;;;0.10;0.10;;;;;;;;;;5128313;28;20404;-48
2023/07/06 14:19:51;;;;;;;0.20;0.20;;;;;;;;;;5127420;28;20330;-48
2023/07/06 14:22:29;;;;;;;0.10;0.10;;;;;;;;;;5127510;28;20042;-50
2023/07/06 14:24:54;;;;;;;0.10;0.10;;;;;;;;;;5127001;28;20043;-50
2023/07/06 14:27:20;;;;;;;0.10;0.10;;;;;;;;;;5127995;28;20051;-49
2023/07/06 14:29:45;;;;;;;0.10;0.10;;;;;;;;;;5127709;28;20067;-49
2023/07/06 14:32:15;;;;;;;0.20;0.20;;;;;;;;;;5127688;28;20051;-50
2023/07/06 14:34:41;;;;;;;0.10;0.10;;;;;;;;;;5118982;27;20082;-49
2023/07/06 14:37:07;;;;;;;0.10;0.10;;;;;;;;;;5127984;27;20476;-49
2023/07/06 14:39:33;;;;;;;0.10;0.10;;;;;;;;;;5127344;27;20133;-50
2023/07/06 14:41:59;;;;;;;0.20;0.20;;;;;;;;;;5126688;28;20047;-50
2023/07/06 14:44:24;;;;;;;0.10;0.10;;;;;;;;;;5127920;27;20462;-49
2023/07/06 14:46:50;;;;;;;0.10;0.10;;;;;;;;;;5127885;28;20471;-50
2023/07/06 14:49:15;;;;;;;0.10;0.10;;;;;;;;;;5127565;28;20376;-49
2023/07/06 14:51:41;;;;;;;0.10;0.10;;;;;;;;;;5117452;28;20051;-50
2023/07/06 14:54:07;;;;;;;0.10;0.10;;;;;;;;;;5127647;28;20047;-50
2023/07/06 14:56:32;;;;;;;0.20;0.20;;;;;;;;;;5127831;27;20047;-50
2023/07/06 14:58:58;;;;;;;0.10;0.10;;;;;;;;;;5127241;28;20051;-50
2023/07/06 15:01:23;;;;;;;0.10;0.10;;;;;;;;;;5111809;28;20069;-50
2023/07/06 15:03:49;;;;;;;0.20;0.20;;;;;;;;;;5106819;28;20055;-49